Syracuse, NY

10:16 PM EST on January 16, 2017 (GMT -0500)
Syracuse Hancock International | | Change Station
Active Advisory: Freezing Rain Advisory

Elev 420 ft 43.11 °N, 76.11 °W | Updated 22 minutes ago

Overcast
Overcast
30 °F
Feels Like 26 °F
N
4
Wind Variable Wind from ESE

Today
High -- | Low -- °F
--% Chance of Precip.
Yesterday
High -- | Low -- °F
Precip. -- in
Pressure 30.25 in
Visibility 10.0 miles
Clouds Overcast 13000 ft
Windchill 26 °F
Dew Point 22 °F
Humidity 72%
Rainfall 0.00 in
Snow Depth Not available.
7:32 AM 4:56 PM
Waning Gibbous, 76% visible
METAR KSYR 170254Z 12003KT 10SM OVC130 M01/M06 A3025 RMK AO2 SLP244 T10111056 58008
Pressure 30.25 in
Visibility 10.0 miles
Clouds Overcast 13000 ft
Windchill 26 °F
Dew Point 22 °F
Humidity 72%
Rainfall 0.00 in
Snow Depth Not available.
7:32 AM 4:56 PM
Waning Gibbous, 76% visible
METAR KSYR 170254Z 12003KT 10SM OVC130 M01/M06 A3025 RMK AO2 SLP244 T10111056 58008

Get Your Daily Forecast Email!

Thanks for signing up!

Be on the lookout for a verification email in your inbox.

You'll start receiving the daily forecast at 8 AM.

×

10-Day Weather Forecast

Almanac

Astronomy

Jan. 16, 2017 Rise Set
Actual Time
Civil Twilight
Nautical Twilight
Astronomical Twilight
Moon
Length of Visible Light
Length of Day
Tomorrow will be .
, % of the Moon is Illuminated

Today's Extremes

State Highs State Lows

Community

WunderPhotos

Upload Photos

1,962,540 photos uploaded!

WunderBlog® & News

Nearby

Air Quality

  Air Quality AQ Index Pollutant
Not available.

Snow Depth

Station Depth Elevation

Earthquake Activity

City Distance Mag. Time & Date
Minimum magnitude displayed is 2.5.

Coastal Water Temperatures

Place Temperature

Stations

Nearby Weather Stations

Station Location Temp. Windchill Dew Point Humidity Wind Precip. Elev Updated Type
                   

Watches & Warnings

Freezing Rain Advisory
Issued: 9:36 PM EST Jan. 16, 2017 – National Weather Service

... Freezing Rain Advisory remains in effect from 4 am to noon EST
Tuesday...

* locations... in central New York, Onondaga, Madison, Cortland,
Chenango, and Broome counties. In northeast Pennsylvania,
Susquehanna, Wayne, Wyoming, Lackawanna, Luzerne and Pike
counties.

* Hazard types... freezing rain.

* Ice accumulations... less than a tenth of an inch.

* Timing... an area of light freezing rain or freezing drizzle will
overspread the region late tonight. Temperatures will slowly
rise above freezing late Tuesday morning, with at least patches
of light freezing rain expected to continue through about 12
noon, particularly over the higher terrain.

* Impacts... ice accumulations may create slippery Road
conditions.

* Winds... southeast 5 mph or less.

* Temperatures... in the lower 30s.

Precautionary/preparedness actions...

A Freezing Rain Advisory means that periods of freezing rain or
freezing drizzle will cause travel difficulties. Be prepared for
slippery roads. Slow down and use caution while driving.